sensor_id;sensor_type;location;lat;lon;timestamp;temperature;humidity
21834;DHT22;11079;51.092;3.458;2022-12-16T00:00:06;1.00;99.90
21834;DHT22;11079;51.092;3.458;2022-12-16T00:02:36;1.00;99.90
21834;DHT22;11079;51.092;3.458;2022-12-16T00:05:02;1.10;99.90
21834;DHT22;11079;51.092;3.458;2022-12-16T00:07:28;1.20;99.90
21834;DHT22;11079;51.092;3.458;2022-12-16T00:09:54;1.40;99.90
21834;DHT22;11079;51.092;3.458;2022-12-16T00:12:19;1.50;99.90
21834;DHT22;11079;51.092;3.458;2022-12-16T00:14:45;1.30;99.90
21834;DHT22;11079;51.092;3.458;2022-12-16T00:17:10;1.40;99.90
21834;DHT22;11079;51.092;3.458;2022-12-16T00:19:36;1.30;99.90
21834;DHT22;11079;51.092;3.458;2022-12-16T00:22:02;1.20;99.90
21834;DHT22;11079;51.092;3.458;2022-12-16T00:24:27;1.50;99.90
21834;DHT22;11079;51.092;3.458;2022-12-16T00:26:55;1.40;99.90
21834;DHT22;11079;51.092;3.458;2022-12-16T00:29:21;1.60;99.90
21834;DHT22;11079;51.092;3.458;2022-12-16T00:31:47;1.50;99.90
21834;DHT22;11079;51.092;3.458;2022-12-16T00:34:14;1.60;99.90
21834;DHT22;11079;51.092;3.458;2022-12-16T00:36:40;1.30;99.90
21834;DHT22;11079;51.092;3.458;2022-12-16T00:39:06;1.10;99.90
21834;DHT22;11079;51.092;3.458;2022-12-16T00:41:31;1.20;99.90
21834;DHT22;11079;51.092;3.458;2022-12-16T00:43:57;1.10;99.90
21834;DHT22;11079;51.092;3.458;2022-12-16T00:46:22;1.10;99.90
21834;DHT22;11079;51.092;3.458;2022-12-16T00:48:48;1.30;99.90
21834;DHT22;11079;51.092;3.458;2022-12-16T00:51:14;1.30;99.90
21834;DHT22;11079;51.092;3.458;2022-12-16T00:53:39;1.20;99.90
21834;DHT22;11079;51.092;3.458;2022-12-16T00:56:08;1.30;99.90
21834;DHT22;11079;51.092;3.458;2022-12-16T00:58:34;1.10;99.90
21834;DHT22;11079;51.092;3.458;2022-12-16T01:01:00;1.10;99.90
21834;DHT22;11079;51.092;3.458;2022-12-16T01:03:26;1.30;99.90
21834;DHT22;11079;51.092;3.458;2022-12-16T01:05:52;1.30;99.90
21834;DHT22;11079;51.092;3.458;2022-12-16T01:08:18;1.30;99.90
21834;DHT22;11079;51.092;3.458;2022-12-16T01:10:55;1.30;99.90
21834;DHT22;11079;51.092;3.458;2022-12-16T01:13:22;1.50;99.90
21834;DHT22;11079;51.092;3.458;2022-12-16T01:15:48;1.50;99.90
21834;DHT22;11079;51.092;3.458;2022-12-16T01:18:14;1.50;99.90
21834;DHT22;11079;51.092;3.458;2022-12-16T01:20:40;1.40;99.90
21834;DHT22;11079;51.092;3.458;2022-12-16T01:23:05;1.60;99.90
21834;DHT22;11079;51.092;3.458;2022-12-16T01:25:31;1.60;99.90
21834;DHT22;11079;51.092;3.458;2022-12-16T01:27:57;1.50;99.90
21834;DHT22;11079;51.092;3.458;2022-12-16T01:30:23;1.60;99.90
21834;DHT22;11079;51.092;3.458;2022-12-16T01:32:49;1.50;99.90
21834;DHT22;11079;51.092;3.458;2022-12-16T01:35:14;1.50;99.90
21834;DHT22;11079;51.092;3.458;2022-12-16T01:37:40;1.50;99.90
21834;DHT22;11079;51.092;3.458;2022-12-16T01:40:07;1.70;99.90
21834;DHT22;11079;51.092;3.458;2022-12-16T01:42:33;1.60;99.90
21834;DHT22;11079;51.092;3.458;2022-12-16T01:47:47;1.60;99.90
21834;DHT22;11079;51.092;3.458;2022-12-16T01:50:15;1.60;99.90
21834;DHT22;11079;51.092;3.458;2022-12-16T01:52:45;1.50;99.90
21834;DHT22;11079;51.092;3.458;2022-12-16T01:55:39;1.60;99.90
21834;DHT22;11079;51.092;3.458;2022-12-16T01:58:11;1.50;99.90
21834;DHT22;11079;51.092;3.458;2022-12-16T02:00:39;1.50;99.90
21834;DHT22;11079;51.092;3.458;2022-12-16T02:03:06;1.60;99.90
21834;DHT22;11079;51.092;3.458;2022-12-16T02:05:38;1.70;99.90
21834;DHT22;11079;51.092;3.458;2022-12-16T02:15:45;1.50;99.90
21834;DHT22;11079;51.092;3.458;2022-12-16T02:18:35;1.50;99.90
21834;DHT22;11079;51.092;3.458;2022-12-16T02:26:59;1.60;99.90
21834;DHT22;11079;51.092;3.458;2022-12-16T02:35:21;1.50;99.90
21834;DHT22;11079;51.092;3.458;2022-12-16T02:40:36;1.50;99.90
21834;DHT22;11079;51.092;3.458;2022-12-16T02:43:07;1.60;99.90
21834;DHT22;11079;51.092;3.458;2022-12-16T02:45:37;1.70;99.90
21834;DHT22;11079;51.092;3.458;2022-12-16T02:48:04;1.60;99.90
21834;DHT22;11079;51.092;3.458;2022-12-16T02:50:47;1.50;99.90
21834;DHT22;11079;51.092;3.458;2022-12-16T02:53:14;1.50;99.90
21834;DHT22;11079;51.092;3.458;2022-12-16T02:55:54;1.50;99.90
21834;DHT22;11079;51.092;3.458;2022-12-16T02:58:30;1.50;99.90
21834;DHT22;11079;51.092;3.458;2022-12-16T03:03:57;1.50;99.90
21834;DHT22;11079;51.092;3.458;2022-12-16T03:06:25;1.30;99.90
21834;DHT22;11079;51.092;3.458;2022-12-16T03:08:54;1.20;99.90
21834;DHT22;11079;51.092;3.458;2022-12-16T03:11:22;1.20;99.90
21834;DHT22;11079;51.092;3.458;2022-12-16T03:13:50;1.20;99.90
21834;DHT22;11079;51.092;3.458;2022-12-16T03:16:20;1.40;99.90
21834;DHT22;11079;51.092;3.458;2022-12-16T03:18:50;1.40;99.90
21834;DHT22;11079;51.092;3.458;2022-12-16T03:21:20;1.60;99.90
21834;DHT22;11079;51.092;3.458;2022-12-16T03:24:07;1.60;99.90
21834;DHT22;11079;51.092;3.458;2022-12-16T03:26:41;1.50;99.90
21834;DHT22;11079;51.092;3.458;2022-12-16T03:29:18;1.50;99.90
21834;DHT22;11079;51.092;3.458;2022-12-16T03:31:59;1.50;99.90
21834;DHT22;11079;51.092;3.458;2022-12-16T03:37:01;1.60;99.90
21834;DHT22;11079;51.092;3.458;2022-12-16T03:39:27;1.60;99.90
21834;DHT22;11079;51.092;3.458;2022-12-16T03:41:53;1.60;99.90
21834;DHT22;11079;51.092;3.458;2022-12-16T03:44:23;1.60;99.90
21834;DHT22;11079;51.092;3.458;2022-12-16T03:46:50;1.70;99.90
21834;DHT22;11079;51.092;3.458;2022-12-16T03:49:16;1.70;99.90
21834;DHT22;11079;51.092;3.458;2022-12-16T03:51:41;1.90;99.90
21834;DHT22;11079;51.092;3.458;2022-12-16T03:54:07;1.80;99.90
21834;DHT22;11079;51.092;3.458;2022-12-16T03:56:32;1.70;99.90
21834;DHT22;11079;51.092;3.458;2022-12-16T03:58:58;1.80;99.90
21834;DHT22;11079;51.092;3.458;2022-12-16T04:01:24;1.70;99.90
21834;DHT22;11079;51.092;3.458;2022-12-16T04:03:50;1.60;99.90
21834;DHT22;11079;51.092;3.458;2022-12-16T04:06:16;1.50;99.90
21834;DHT22;11079;51.092;3.458;2022-12-16T04:08:46;1.50;99.90
21834;DHT22;11079;51.092;3.458;2022-12-16T04:11:12;1.50;99.90
21834;DHT22;11079;51.092;3.458;2022-12-16T04:13:57;1.60;99.90
21834;DHT22;11079;51.092;3.458;2022-12-16T04:16:42;1.40;99.90
21834;DHT22;11079;51.092;3.458;2022-12-16T04:19:29;1.50;99.90
21834;DHT22;11079;51.092;3.458;2022-12-16T04:22:23;1.50;99.90
21834;DHT22;11079;51.092;3.458;2022-12-16T04:25:23;1.50;99.90
21834;DHT22;11079;51.092;3.458;2022-12-16T04:27:49;1.50;99.90
21834;DHT22;11079;51.092;3.458;2022-12-16T04:30:19;1.50;99.90
21834;DHT22;11079;51.092;3.458;2022-12-16T04:32:57;1.30;99.90
21834;DHT22;11079;51.092;3.458;2022-12-16T04:35:42;1.30;99.90
21834;DHT22;11079;51.092;3.458;2022-12-16T04:38:27;1.30;99.90
21834;DHT22;11079;51.092;3.458;2022-12-16T04:41:12;1.30;99.90
21834;DHT22;11079;51.092;3.458;2022-12-16T04:43:56;1.30;99.90
21834;DHT22;11079;51.092;3.458;2022-12-16T04:46:40;1.20;99.90
21834;DHT22;11079;51.092;3.458;2022-12-16T04:49:24;1.30;99.90
21834;DHT22;11079;51.092;3.458;2022-12-16T04:52:09;1.20;99.90
21834;DHT22;11079;51.092;3.458;2022-12-16T04:54:53;1.10;99.90
21834;DHT22;11079;51.092;3.458;2022-12-16T04:57:37;1.00;99.90
21834;DHT22;11079;51.092;3.458;2022-12-16T05:00:22;0.90;99.90
21834;DHT22;11079;51.092;3.458;2022-12-16T05:03:06;1.00;99.90
21834;DHT22;11079;51.092;3.458;2022-12-16T05:05:50;0.90;99.90
21834;DHT22;11079;51.092;3.458;2022-12-16T05:08:34;1.00;99.90
21834;DHT22;11079;51.092;3.458;2022-12-16T05:11:18;0.90;99.90
21834;DHT22;11079;51.092;3.458;2022-12-16T05:14:03;0.80;99.90
21834;DHT22;11079;51.092;3.458;2022-12-16T05:16:47;0.80;99.90
21834;DHT22;11079;51.092;3.458;2022-12-16T05:19:31;0.80;99.90
21834;DHT22;11079;51.092;3.458;2022-12-16T05:22:15;0.80;99.90
21834;DHT22;11079;51.092;3.458;2022-12-16T05:24:59;0.90;99.90
21834;DHT22;11079;51.092;3.458;2022-12-16T05:27:43;0.90;99.90
21834;DHT22;11079;51.092;3.458;2022-12-16T05:30:28;0.80;99.90
21834;DHT22;11079;51.092;3.458;2022-12-16T05:33:12;0.80;99.90
21834;DHT22;11079;51.092;3.458;2022-12-16T05:35:55;0.70;99.90
21834;DHT22;11079;51.092;3.458;2022-12-16T05:38:39;0.70;99.90
21834;DHT22;11079;51.092;3.458;2022-12-16T05:41:23;0.60;99.90
21834;DHT22;11079;51.092;3.458;2022-12-16T05:44:07;0.50;99.90
21834;DHT22;11079;51.092;3.458;2022-12-16T05:46:51;0.50;99.90
21834;DHT22;11079;51.092;3.458;2022-12-16T05:49:35;0.70;99.90
21834;DHT22;11079;51.092;3.458;2022-12-16T05:52:20;0.80;99.90
21834;DHT22;11079;51.092;3.458;2022-12-16T05:55:05;1.00;99.90
21834;DHT22;11079;51.092;3.458;2022-12-16T05:57:52;1.20;99.90
21834;DHT22;11079;51.092;3.458;2022-12-16T06:00:36;1.40;99.90
21834;DHT22;11079;51.092;3.458;2022-12-16T06:03:20;1.50;99.90
21834;DHT22;11079;51.092;3.458;2022-12-16T06:06:05;1.60;99.90
21834;DHT22;11079;51.092;3.458;2022-12-16T06:08:49;1.50;99.90
21834;DHT22;11079;51.092;3.458;2022-12-16T06:11:34;1.40;99.90
21834;DHT22;11079;51.092;3.458;2022-12-16T06:14:17;1.30;99.90
21834;DHT22;11079;51.092;3.458;2022-12-16T06:17:02;1.20;99.90
21834;DHT22;11079;51.092;3.458;2022-12-16T06:19:46;0.90;99.90
21834;DHT22;11079;51.092;3.458;2022-12-16T06:22:30;0.60;99.90
21834;DHT22;11079;51.092;3.458;2022-12-16T06:25:14;0.70;99.90
21834;DHT22;11079;51.092;3.458;2022-12-16T06:27:58;0.80;99.90
21834;DHT22;11079;51.092;3.458;2022-12-16T06:30:44;0.90;99.90
21834;DHT22;11079;51.092;3.458;2022-12-16T06:33:28;0.90;99.90
21834;DHT22;11079;51.092;3.458;2022-12-16T06:36:12;0.80;99.90
21834;DHT22;11079;51.092;3.458;2022-12-16T06:38:56;0.60;99.90
21834;DHT22;11079;51.092;3.458;2022-12-16T06:41:40;0.40;99.90
21834;DHT22;11079;51.092;3.458;2022-12-16T06:44:24;0.30;99.90
21834;DHT22;11079;51.092;3.458;2022-12-16T06:47:08;0.20;99.90
21834;DHT22;11079;51.092;3.458;2022-12-16T06:49:52;0.10;99.90
21834;DHT22;11079;51.092;3.458;2022-12-16T06:52:36;0.00;99.90
21834;DHT22;11079;51.092;3.458;2022-12-16T06:55:20;0.10;99.90
21834;DHT22;11079;51.092;3.458;2022-12-16T06:58:04;0.30;99.90
21834;DHT22;11079;51.092;3.458;2022-12-16T07:00:49;0.40;99.90
21834;DHT22;11079;51.092;3.458;2022-12-16T07:03:33;0.60;99.90
21834;DHT22;11079;51.092;3.458;2022-12-16T07:06:17;0.70;99.90
21834;DHT22;11079;51.092;3.458;2022-12-16T07:09:01;0.30;99.90
21834;DHT22;11079;51.092;3.458;2022-12-16T07:11:45;0.20;99.90
21834;DHT22;11079;51.092;3.458;2022-12-16T07:14:29;0.10;99.90
21834;DHT22;11079;51.092;3.458;2022-12-16T07:17:13;0.10;99.90
21834;DHT22;11079;51.092;3.458;2022-12-16T07:19:57;0.00;99.90
21834;DHT22;11079;51.092;3.458;2022-12-16T07:22:43;0.30;99.90
21834;DHT22;11079;51.092;3.458;2022-12-16T07:25:27;0.20;99.90
21834;DHT22;11079;51.092;3.458;2022-12-16T07:28:11;0.20;99.90
21834;DHT22;11079;51.092;3.458;2022-12-16T07:30:55;0.30;99.90
21834;DHT22;11079;51.092;3.458;2022-12-16T07:33:39;0.10;99.90
21834;DHT22;11079;51.092;3.458;2022-12-16T07:36:24;0.10;99.90
21834;DHT22;11079;51.092;3.458;2022-12-16T07:39:08;-0.10;99.90
21834;DHT22;11079;51.092;3.458;2022-12-16T07:41:52;-0.10;99.90
21834;DHT22;11079;51.092;3.458;2022-12-16T07:44:36;0.10;99.90
21834;DHT22;11079;51.092;3.458;2022-12-16T07:47:20;0.20;99.90
21834;DHT22;11079;51.092;3.458;2022-12-16T07:50:04;0.10;99.90
21834;DHT22;11079;51.092;3.458;2022-12-16T07:52:59;0.10;99.90
21834;DHT22;11079;51.092;3.458;2022-12-16T07:55:44;0.10;99.90
21834;DHT22;11079;51.092;3.458;2022-12-16T07:58:29;0.30;99.90
21834;DHT22;11079;51.092;3.458;2022-12-16T08:01:13;0.50;99.90
21834;DHT22;11079;51.092;3.458;2022-12-16T08:03:57;0.50;99.90
21834;DHT22;11079;51.092;3.458;2022-12-16T08:06:41;0.70;99.90
21834;DHT22;11079;51.092;3.458;2022-12-16T08:09:25;0.70;99.90
21834;DHT22;11079;51.092;3.458;2022-12-16T08:12:09;0.70;99.90
21834;DHT22;11079;51.092;3.458;2022-12-16T08:14:53;0.70;99.90
21834;DHT22;11079;51.092;3.458;2022-12-16T08:17:37;1.00;99.90
21834;DHT22;11079;51.092;3.458;2022-12-16T08:20:24;1.30;99.90
21834;DHT22;11079;51.092;3.458;2022-12-16T08:23:08;1.50;99.90
21834;DHT22;11079;51.092;3.458;2022-12-16T08:25:51;2.00;99.90
21834;DHT22;11079;51.092;3.458;2022-12-16T08:28:36;2.80;99.90
21834;DHT22;11079;51.092;3.458;2022-12-16T08:31:20;3.80;99.90
21834;DHT22;11079;51.092;3.458;2022-12-16T08:34:04;4.70;99.90
21834;DHT22;11079;51.092;3.458;2022-12-16T08:36:48;5.50;99.90
21834;DHT22;11079;51.092;3.458;2022-12-16T08:39:32;5.80;99.90
21834;DHT22;11079;51.092;3.458;2022-12-16T08:42:17;6.20;99.90
21834;DHT22;11079;51.092;3.458;2022-12-16T08:45:02;6.90;99.90
21834;DHT22;11079;51.092;3.458;2022-12-16T08:47:46;7.60;99.90
21834;DHT22;11079;51.092;3.458;2022-12-16T08:50:30;8.40;99.90
21834;DHT22;11079;51.092;3.458;2022-12-16T08:53:14;9.10;99.90
21834;DHT22;11079;51.092;3.458;2022-12-16T08:55:58;9.90;99.90
21834;DHT22;11079;51.092;3.458;2022-12-16T08:58:43;10.70;99.90
21834;DHT22;11079;51.092;3.458;2022-12-16T09:01:27;11.40;99.90
21834;DHT22;11079;51.092;3.458;2022-12-16T09:04:11;12.10;99.90
21834;DHT22;11079;51.092;3.458;2022-12-16T09:06:55;12.70;99.90
21834;DHT22;11079;51.092;3.458;2022-12-16T09:09:39;13.10;99.90
21834;DHT22;11079;51.092;3.458;2022-12-16T09:12:23;13.70;99.90
21834;DHT22;11079;51.092;3.458;2022-12-16T09:15:08;14.20;99.90
21834;DHT22;11079;51.092;3.458;2022-12-16T09:17:53;14.70;99.90
21834;DHT22;11079;51.092;3.458;2022-12-16T09:20:37;15.20;99.90
21834;DHT22;11079;51.092;3.458;2022-12-16T09:23:21;15.70;99.90
21834;DHT22;11079;51.092;3.458;2022-12-16T09:26:05;16.00;99.90
21834;DHT22;11079;51.092;3.458;2022-12-16T09:28:49;16.50;99.90
21834;DHT22;11079;51.092;3.458;2022-12-16T09:31:33;16.90;99.90
21834;DHT22;11079;51.092;3.458;2022-12-16T09:34:17;17.20;99.90
21834;DHT22;11079;51.092;3.458;2022-12-16T09:37:01;17.40;99.90
21834;DHT22;11079;51.092;3.458;2022-12-16T09:39:56;17.80;99.90
21834;DHT22;11079;51.092;3.458;2022-12-16T09:51:41;19.10;96.90
21834;DHT22;11079;51.092;3.458;2022-12-16T09:54:28;19.30;95.40
21834;DHT22;11079;51.092;3.458;2022-12-16T09:57:13;19.60;94.40
21834;DHT22;11079;51.092;3.458;2022-12-16T10:00:06;19.60;94.30
21834;DHT22;11079;51.092;3.458;2022-12-16T10:02:56;19.60;94.00
21834;DHT22;11079;51.092;3.458;2022-12-16T10:05:57;19.60;93.80
21834;DHT22;11079;51.092;3.458;2022-12-16T10:08:56;19.70;93.30
21834;DHT22;11079;51.092;3.458;2022-12-16T10:15:02;20.20;91.90
21834;DHT22;11079;51.092;3.458;2022-12-16T10:17:51;20.20;91.80
21834;DHT22;11079;51.092;3.458;2022-12-16T10:20:39;20.00;91.20
21834;DHT22;11079;51.092;3.458;2022-12-16T10:23:34;18.60;92.30
21834;DHT22;11079;51.092;3.458;2022-12-16T10:29:45;15.50;96.60
21834;DHT22;11079;51.092;3.458;2022-12-16T10:32:39;15.20;99.90
21834;DHT22;11079;51.092;3.458;2022-12-16T10:35:28;15.50;99.90
21834;DHT22;11079;51.092;3.458;2022-12-16T10:39:04;15.70;99.90
21834;DHT22;11079;51.092;3.458;2022-12-16T10:41:31;16.80;99.90
21834;DHT22;11079;51.092;3.458;2022-12-16T10:47:06;17.60;95.40
21834;DHT22;11079;51.092;3.458;2022-12-16T10:49:52;16.70;96.70
21834;DHT22;11079;51.092;3.458;2022-12-16T10:52:43;15.90;97.60
21834;DHT22;11079;51.092;3.458;2022-12-16T10:55:48;15.30;99.00
21834;DHT22;11079;51.092;3.458;2022-12-16T11:01:26;14.10;99.90
21834;DHT22;11079;51.092;3.458;2022-12-16T11:04:34;13.80;99.90
21834;DHT22;11079;51.092;3.458;2022-12-16T11:07:49;13.60;99.90
21834;DHT22;11079;51.092;3.458;2022-12-16T11:10:41;13.50;99.90
21834;DHT22;11079;51.092;3.458;2022-12-16T11:13:33;13.70;99.90
21834;DHT22;11079;51.092;3.458;2022-12-16T11:16:26;13.60;99.90
21834;DHT22;11079;51.092;3.458;2022-12-16T11:19:27;13.20;99.90
21834;DHT22;11079;51.092;3.458;2022-12-16T11:22:17;13.00;99.90
21834;DHT22;11079;51.092;3.458;2022-12-16T11:25:17;13.00;99.90
21834;DHT22;11079;51.092;3.458;2022-12-16T11:28:20;12.90;99.90
21834;DHT22;11079;51.092;3.458;2022-12-16T11:31:09;12.90;99.90
21834;DHT22;11079;51.092;3.458;2022-12-16T11:33:57;13.50;99.90
21834;DHT22;11079;51.092;3.458;2022-12-16T11:36:42;14.50;99.90
21834;DHT22;11079;51.092;3.458;2022-12-16T11:39:28;14.80;99.90
21834;DHT22;11079;51.092;3.458;2022-12-16T11:42:22;14.60;99.90
21834;DHT22;11079;51.092;3.458;2022-12-16T11:45:13;14.20;99.90
21834;DHT22;11079;51.092;3.458;2022-12-16T11:50:56;15.40;99.90
21834;DHT22;11079;51.092;3.458;2022-12-16T11:56:59;15.20;99.90
21834;DHT22;11079;51.092;3.458;2022-12-16T11:59:51;15.90;99.90
21834;DHT22;11079;51.092;3.458;2022-12-16T12:11:48;15.20;99.90
21834;DHT22;11079;51.092;3.458;2022-12-16T12:14:46;16.40;99.90
21834;DHT22;11079;51.092;3.458;2022-12-16T12:26:31;15.80;99.80
21834;DHT22;11079;51.092;3.458;2022-12-16T12:29:32;16.60;99.00
21834;DHT22;11079;51.092;3.458;2022-12-16T12:42:02;17.90;92.70
21834;DHT22;11079;51.092;3.458;2022-12-16T12:45:02;17.90;91.70
21834;DHT22;11079;51.092;3.458;2022-12-16T12:50:59;17.50;91.40
21834;DHT22;11079;51.092;3.458;2022-12-16T12:54:09;17.20;92.10
21834;DHT22;11079;51.092;3.458;2022-12-16T12:56:56;17.00;91.40
21834;DHT22;11079;51.092;3.458;2022-12-16T13:02:46;16.60;92.10
21834;DHT22;11079;51.092;3.458;2022-12-16T13:05:33;15.90;92.70
21834;DHT22;11079;51.092;3.458;2022-12-16T13:11:20;14.50;94.10
21834;DHT22;11079;51.092;3.458;2022-12-16T13:17:18;14.20;95.30
21834;DHT22;11079;51.092;3.458;2022-12-16T13:20:32;13.80;95.90
21834;DHT22;11079;51.092;3.458;2022-12-16T13:23:34;13.40;96.40
21834;DHT22;11079;51.092;3.458;2022-12-16T13:26:20;13.00;97.40
21834;DHT22;11079;51.092;3.458;2022-12-16T13:35:14;12.30;98.90
21834;DHT22;11079;51.092;3.458;2022-12-16T13:38:19;12.00;99.30
21834;DHT22;11079;51.092;3.458;2022-12-16T13:44:12;11.30;99.90
21834;DHT22;11079;51.092;3.458;2022-12-16T13:46:56;11.00;99.90
21834;DHT22;11079;51.092;3.458;2022-12-16T13:55:22;10.70;99.90
21834;DHT22;11079;51.092;3.458;2022-12-16T13:58:37;10.40;99.90
21834;DHT22;11079;51.092;3.458;2022-12-16T14:02:17;10.00;99.90
21834;DHT22;11079;51.092;3.458;2022-12-16T14:04:45;10.20;99.90
21834;DHT22;11079;51.092;3.458;2022-12-16T14:07:33;10.50;99.90
21834;DHT22;11079;51.092;3.458;2022-12-16T14:10:34;10.80;99.90
21834;DHT22;11079;51.092;3.458;2022-12-16T14:22:46;11.70;99.90
21834;DHT22;11079;51.092;3.458;2022-12-16T14:25:33;11.90;99.90
21834;DHT22;11079;51.092;3.458;2022-12-16T14:28:37;12.00;99.90
21834;DHT22;11079;51.092;3.458;2022-12-16T14:31:33;12.00;99.90
21834;DHT22;11079;51.092;3.458;2022-12-16T14:34:26;11.80;99.90
21834;DHT22;11079;51.092;3.458;2022-12-16T14:37:49;11.60;99.90
21834;DHT22;11079;51.092;3.458;2022-12-16T14:40:31;11.20;99.90
21834;DHT22;11079;51.092;3.458;2022-12-16T14:43:23;10.70;99.90
21834;DHT22;11079;51.092;3.458;2022-12-16T14:46:26;10.60;99.90
21834;DHT22;11079;51.092;3.458;2022-12-16T14:49:24;10.30;99.90
21834;DHT22;11079;51.092;3.458;2022-12-16T14:52:25;10.00;99.90
21834;DHT22;11079;51.092;3.458;2022-12-16T14:55:16;9.80;99.90
21834;DHT22;11079;51.092;3.458;2022-12-16T14:58:17;9.70;99.90
21834;DHT22;11079;51.092;3.458;2022-12-16T15:01:23;9.60;99.90
21834;DHT22;11079;51.092;3.458;2022-12-16T15:04:20;9.40;99.90
21834;DHT22;11079;51.092;3.458;2022-12-16T15:07:10;9.20;99.90
21834;DHT22;11079;51.092;3.458;2022-12-16T15:09:56;9.20;99.90
21834;DHT22;11079;51.092;3.458;2022-12-16T15:12:44;8.90;99.90
21834;DHT22;11079;51.092;3.458;2022-12-16T15:15:45;8.70;99.90
21834;DHT22;11079;51.092;3.458;2022-12-16T15:18:37;8.70;99.90
21834;DHT22;11079;51.092;3.458;2022-12-16T15:21:22;8.50;99.90
21834;DHT22;11079;51.092;3.458;2022-12-16T15:24:15;8.40;99.90
21834;DHT22;11079;51.092;3.458;2022-12-16T15:27:23;8.00;99.90
21834;DHT22;11079;51.092;3.458;2022-12-16T15:30:30;7.70;99.90
21834;DHT22;11079;51.092;3.458;2022-12-16T15:33:17;7.40;99.90
21834;DHT22;11079;51.092;3.458;2022-12-16T15:36:03;7.10;99.90
21834;DHT22;11079;51.092;3.458;2022-12-16T15:38:48;6.90;99.90
21834;DHT22;11079;51.092;3.458;2022-12-16T15:41:34;6.70;99.90
21834;DHT22;11079;51.092;3.458;2022-12-16T15:44:21;6.40;99.90
21834;DHT22;11079;51.092;3.458;2022-12-16T15:50:14;5.70;99.90
21834;DHT22;11079;51.092;3.458;2022-12-16T15:53:28;5.40;99.90
21834;DHT22;11079;51.092;3.458;2022-12-16T15:56:40;5.20;99.90
21834;DHT22;11079;51.092;3.458;2022-12-16T15:59:30;5.10;99.90
21834;DHT22;11079;51.092;3.458;2022-12-16T16:02:21;5.00;99.90
21834;DHT22;11079;51.092;3.458;2022-12-16T16:05:14;4.80;99.90
21834;DHT22;11079;51.092;3.458;2022-12-16T16:07:59;4.60;99.90
21834;DHT22;11079;51.092;3.458;2022-12-16T16:10:43;4.50;99.90
21834;DHT22;11079;51.092;3.458;2022-12-16T16:13:28;4.50;99.90
21834;DHT22;11079;51.092;3.458;2022-12-16T16:16:13;4.30;99.90
21834;DHT22;11079;51.092;3.458;2022-12-16T16:18:57;4.20;99.90
21834;DHT22;11079;51.092;3.458;2022-12-16T16:21:42;4.20;99.90
21834;DHT22;11079;51.092;3.458;2022-12-16T16:24:26;3.90;99.90
21834;DHT22;11079;51.092;3.458;2022-12-16T16:27:12;3.50;99.90
21834;DHT22;11079;51.092;3.458;2022-12-16T16:29:57;3.50;99.90
21834;DHT22;11079;51.092;3.458;2022-12-16T16:32:42;3.20;99.90
21834;DHT22;11079;51.092;3.458;2022-12-16T16:35:26;3.30;99.90
21834;DHT22;11079;51.092;3.458;2022-12-16T16:38:10;3.00;99.90
21834;DHT22;11079;51.092;3.458;2022-12-16T16:40:54;2.90;99.90
21834;DHT22;11079;51.092;3.458;2022-12-16T16:43:39;3.00;99.90
21834;DHT22;11079;51.092;3.458;2022-12-16T16:46:30;3.40;99.90
21834;DHT22;11079;51.092;3.458;2022-12-16T16:49:29;3.50;99.90
21834;DHT22;11079;51.092;3.458;2022-12-16T16:52:15;3.50;99.90
21834;DHT22;11079;51.092;3.458;2022-12-16T16:54:59;3.20;99.90
21834;DHT22;11079;51.092;3.458;2022-12-16T16:57:43;3.10;99.90
21834;DHT22;11079;51.092;3.458;2022-12-16T17:00:29;3.20;99.90
21834;DHT22;11079;51.092;3.458;2022-12-16T17:03:13;3.20;99.90
21834;DHT22;11079;51.092;3.458;2022-12-16T17:05:57;3.10;99.90
21834;DHT22;11079;51.092;3.458;2022-12-16T17:08:41;3.00;99.90
21834;DHT22;11079;51.092;3.458;2022-12-16T17:11:26;2.90;99.90
21834;DHT22;11079;51.092;3.458;2022-12-16T17:14:12;2.80;99.90
21834;DHT22;11079;51.092;3.458;2022-12-16T17:16:57;2.60;99.90
21834;DHT22;11079;51.092;3.458;2022-12-16T17:19:41;2.70;99.90
21834;DHT22;11079;51.092;3.458;2022-12-16T17:22:25;2.60;99.90
21834;DHT22;11079;51.092;3.458;2022-12-16T17:25:09;2.60;99.90
21834;DHT22;11079;51.092;3.458;2022-12-16T17:27:53;2.50;99.90
21834;DHT22;11079;51.092;3.458;2022-12-16T17:30:38;2.50;99.90
21834;DHT22;11079;51.092;3.458;2022-12-16T17:33:22;2.30;99.90
21834;DHT22;11079;51.092;3.458;2022-12-16T17:36:10;2.30;99.90
21834;DHT22;11079;51.092;3.458;2022-12-16T17:38:55;2.40;99.90
21834;DHT22;11079;51.092;3.458;2022-12-16T17:41:39;2.20;99.90
21834;DHT22;11079;51.092;3.458;2022-12-16T17:44:23;2.20;99.90
21834;DHT22;11079;51.092;3.458;2022-12-16T17:47:08;2.00;99.90
21834;DHT22;11079;51.092;3.458;2022-12-16T17:49:52;1.90;99.90
21834;DHT22;11079;51.092;3.458;2022-12-16T17:52:36;1.80;99.90
21834;DHT22;11079;51.092;3.458;2022-12-16T17:55:21;1.70;99.90
21834;DHT22;11079;51.092;3.458;2022-12-16T17:58:05;1.80;99.90
21834;DHT22;11079;51.092;3.458;2022-12-16T18:00:49;1.80;99.90
21834;DHT22;11079;51.092;3.458;2022-12-16T18:03:33;1.60;99.90
21834;DHT22;11079;51.092;3.458;2022-12-16T18:06:17;1.50;99.90
21834;DHT22;11079;51.092;3.458;2022-12-16T18:09:02;1.50;99.90
21834;DHT22;11079;51.092;3.458;2022-12-16T18:11:46;1.50;99.90
21834;DHT22;11079;51.092;3.458;2022-12-16T18:14:31;1.40;99.90
21834;DHT22;11079;51.092;3.458;2022-12-16T18:17:15;1.40;99.90
21834;DHT22;11079;51.092;3.458;2022-12-16T18:19:59;1.30;99.90
21834;DHT22;11079;51.092;3.458;2022-12-16T18:22:43;1.20;99.90
21834;DHT22;11079;51.092;3.458;2022-12-16T18:25:28;1.30;99.90
21834;DHT22;11079;51.092;3.458;2022-12-16T18:28:12;1.50;99.90
21834;DHT22;11079;51.092;3.458;2022-12-16T18:30:55;1.30;99.90
21834;DHT22;11079;51.092;3.458;2022-12-16T18:33:40;1.20;99.90
21834;DHT22;11079;51.092;3.458;2022-12-16T18:36:24;1.00;99.90
21834;DHT22;11079;51.092;3.458;2022-12-16T18:39:08;1.00;99.90
21834;DHT22;11079;51.092;3.458;2022-12-16T18:41:52;1.20;99.90
21834;DHT22;11079;51.092;3.458;2022-12-16T18:44:36;1.10;99.90
21834;DHT22;11079;51.092;3.458;2022-12-16T18:47:20;1.10;99.90
21834;DHT22;11079;51.092;3.458;2022-12-16T18:50:05;1.30;99.90
21834;DHT22;11079;51.092;3.458;2022-12-16T18:52:49;1.10;99.90
21834;DHT22;11079;51.092;3.458;2022-12-16T18:55:33;1.00;99.90
21834;DHT22;11079;51.092;3.458;2022-12-16T18:58:17;0.90;99.90
21834;DHT22;11079;51.092;3.458;2022-12-16T19:01:09;0.80;99.90
21834;DHT22;11079;51.092;3.458;2022-12-16T19:03:54;0.80;99.90
21834;DHT22;11079;51.092;3.458;2022-12-16T19:06:39;0.90;99.90
21834;DHT22;11079;51.092;3.458;2022-12-16T19:09:23;1.00;99.90
21834;DHT22;11079;51.092;3.458;2022-12-16T19:12:07;1.00;99.90
21834;DHT22;11079;51.092;3.458;2022-12-16T19:14:51;0.90;99.90
21834;DHT22;11079;51.092;3.458;2022-12-16T19:17:35;0.70;99.90
21834;DHT22;11079;51.092;3.458;2022-12-16T19:20:19;0.70;99.90
21834;DHT22;11079;51.092;3.458;2022-12-16T19:23:03;0.60;99.90
21834;DHT22;11079;51.092;3.458;2022-12-16T19:25:47;0.60;99.90
21834;DHT22;11079;51.092;3.458;2022-12-16T19:28:31;0.50;99.90